sensor_id;sensor_type;location;lat;lon;timestamp;temperature;humidity
7648;DHT22;3866;48.020;11.720;2023-02-13T00:01:15;1.50;99.90
7648;DHT22;3866;48.020;11.720;2023-02-13T00:03:42;1.50;99.90
7648;DHT22;3866;48.020;11.720;2023-02-13T00:06:09;1.40;99.90
7648;DHT22;3866;48.020;11.720;2023-02-13T00:08:36;1.50;99.90
7648;DHT22;3866;48.020;11.720;2023-02-13T00:11:04;1.50;99.90
7648;DHT22;3866;48.020;11.720;2023-02-13T00:13:32;1.50;99.90
7648;DHT22;3866;48.020;11.720;2023-02-13T00:16:00;1.50;99.90
7648;DHT22;3866;48.020;11.720;2023-02-13T00:18:28;1.50;99.90
7648;DHT22;3866;48.020;11.720;2023-02-13T00:20:57;1.40;99.90
7648;DHT22;3866;48.020;11.720;2023-02-13T00:23:25;1.40;99.90
7648;DHT22;3866;48.020;11.720;2023-02-13T00:25:51;1.30;99.90
7648;DHT22;3866;48.020;11.720;2023-02-13T00:28:20;1.30;99.90
7648;DHT22;3866;48.020;11.720;2023-02-13T00:30:47;1.20;99.90
7648;DHT22;3866;48.020;11.720;2023-02-13T00:33:14;1.10;99.90
7648;DHT22;3866;48.020;11.720;2023-02-13T00:35:41;1.20;99.90
7648;DHT22;3866;48.020;11.720;2023-02-13T00:38:08;1.10;99.90
7648;DHT22;3866;48.020;11.720;2023-02-13T00:40:35;1.10;99.90
7648;DHT22;3866;48.020;11.720;2023-02-13T00:43:02;1.10;99.90
7648;DHT22;3866;48.020;11.720;2023-02-13T00:45:30;1.10;99.90
7648;DHT22;3866;48.020;11.720;2023-02-13T00:47:57;1.10;99.90
7648;DHT22;3866;48.020;11.720;2023-02-13T00:50:24;1.00;99.90
7648;DHT22;3866;48.020;11.720;2023-02-13T00:52:50;1.00;99.90
7648;DHT22;3866;48.020;11.720;2023-02-13T00:55:17;1.10;99.90
7648;DHT22;3866;48.020;11.720;2023-02-13T00:57:44;1.10;99.90
7648;DHT22;3866;48.020;11.720;2023-02-13T01:00:12;1.10;99.90
7648;DHT22;3866;48.020;11.720;2023-02-13T01:02:41;1.10;99.90
7648;DHT22;3866;48.020;11.720;2023-02-13T01:05:08;1.00;99.90
7648;DHT22;3866;48.020;11.720;2023-02-13T01:07:35;1.00;99.90
7648;DHT22;3866;48.020;11.720;2023-02-13T01:10:02;1.00;99.90
7648;DHT22;3866;48.020;11.720;2023-02-13T01:12:28;1.00;99.90
7648;DHT22;3866;48.020;11.720;2023-02-13T01:14:55;0.90;99.90
7648;DHT22;3866;48.020;11.720;2023-02-13T01:17:22;0.90;99.90
7648;DHT22;3866;48.020;11.720;2023-02-13T01:19:51;0.80;99.90
7648;DHT22;3866;48.020;11.720;2023-02-13T01:22:18;0.80;99.90
7648;DHT22;3866;48.020;11.720;2023-02-13T01:24:44;0.80;99.90
7648;DHT22;3866;48.020;11.720;2023-02-13T01:27:11;0.70;99.90
7648;DHT22;3866;48.020;11.720;2023-02-13T01:29:38;0.80;99.90
7648;DHT22;3866;48.020;11.720;2023-02-13T01:32:05;0.80;99.90
7648;DHT22;3866;48.020;11.720;2023-02-13T01:34:32;0.80;99.90
7648;DHT22;3866;48.020;11.720;2023-02-13T01:37:01;0.80;99.90
7648;DHT22;3866;48.020;11.720;2023-02-13T01:39:28;0.80;99.90
7648;DHT22;3866;48.020;11.720;2023-02-13T01:41:54;0.70;99.90
7648;DHT22;3866;48.020;11.720;2023-02-13T01:44:48;0.70;99.90
7648;DHT22;3866;48.020;11.720;2023-02-13T01:47:19;0.80;99.90
7648;DHT22;3866;48.020;11.720;2023-02-13T01:49:48;0.80;99.90
7648;DHT22;3866;48.020;11.720;2023-02-13T01:52:17;0.70;99.90
7648;DHT22;3866;48.020;11.720;2023-02-13T01:54:45;0.70;99.90
7648;DHT22;3866;48.020;11.720;2023-02-13T01:57:15;0.70;99.90
7648;DHT22;3866;48.020;11.720;2023-02-13T01:59:45;0.70;99.90
7648;DHT22;3866;48.020;11.720;2023-02-13T02:02:14;0.80;99.90
7648;DHT22;3866;48.020;11.720;2023-02-13T02:04:42;0.80;99.90
7648;DHT22;3866;48.020;11.720;2023-02-13T02:07:12;0.70;99.90
7648;DHT22;3866;48.020;11.720;2023-02-13T02:09:42;0.60;99.90
7648;DHT22;3866;48.020;11.720;2023-02-13T02:12:16;0.60;99.90
7648;DHT22;3866;48.020;11.720;2023-02-13T02:14:45;0.60;99.90
7648;DHT22;3866;48.020;11.720;2023-02-13T02:17:12;0.50;99.90
7648;DHT22;3866;48.020;11.720;2023-02-13T02:19:43;0.30;99.90
7648;DHT22;3866;48.020;11.720;2023-02-13T02:26:03;0.50;99.90
7648;DHT22;3866;48.020;11.720;2023-02-13T02:28:50;0.50;99.90
7648;DHT22;3866;48.020;11.720;2023-02-13T02:34:39;0.40;99.90
7648;DHT22;3866;48.020;11.720;2023-02-13T02:37:19;0.40;99.90
7648;DHT22;3866;48.020;11.720;2023-02-13T02:39:58;0.40;99.90
7648;DHT22;3866;48.020;11.720;2023-02-13T02:42:33;0.30;99.90
7648;DHT22;3866;48.020;11.720;2023-02-13T02:45:08;0.40;99.90
7648;DHT22;3866;48.020;11.720;2023-02-13T02:47:43;0.40;99.90
7648;DHT22;3866;48.020;11.720;2023-02-13T02:50:34;0.40;99.90
7648;DHT22;3866;48.020;11.720;2023-02-13T02:53:14;0.50;99.90
7648;DHT22;3866;48.020;11.720;2023-02-13T02:55:47;0.60;99.90
7648;DHT22;3866;48.020;11.720;2023-02-13T02:58:20;0.60;99.90
7648;DHT22;3866;48.020;11.720;2023-02-13T03:01:08;0.60;99.90
7648;DHT22;3866;48.020;11.720;2023-02-13T03:03:56;0.60;99.90
7648;DHT22;3866;48.020;11.720;2023-02-13T03:06:45;0.70;99.90
7648;DHT22;3866;48.020;11.720;2023-02-13T03:09:18;0.70;99.90
7648;DHT22;3866;48.020;11.720;2023-02-13T03:12:04;0.50;99.90
7648;DHT22;3866;48.020;11.720;2023-02-13T03:14:49;0.50;99.90
7648;DHT22;3866;48.020;11.720;2023-02-13T03:17:17;0.50;99.90
7648;DHT22;3866;48.020;11.720;2023-02-13T03:20:13;0.40;99.90
7648;DHT22;3866;48.020;11.720;2023-02-13T03:23:10;0.40;99.90
7648;DHT22;3866;48.020;11.720;2023-02-13T03:25:52;0.30;99.90
7648;DHT22;3866;48.020;11.720;2023-02-13T03:28:28;0.50;99.90
7648;DHT22;3866;48.020;11.720;2023-02-13T03:31:20;0.40;99.90
7648;DHT22;3866;48.020;11.720;2023-02-13T03:33:55;0.20;99.90
7648;DHT22;3866;48.020;11.720;2023-02-13T03:36:36;0.20;99.90
7648;DHT22;3866;48.020;11.720;2023-02-13T03:39:34;0.20;99.90
7648;DHT22;3866;48.020;11.720;2023-02-13T03:42:05;0.20;99.90
7648;DHT22;3866;48.020;11.720;2023-02-13T03:44:36;0.20;99.90
7648;DHT22;3866;48.020;11.720;2023-02-13T03:47:05;0.20;99.90
7648;DHT22;3866;48.020;11.720;2023-02-13T03:49:37;0.20;99.90
7648;DHT22;3866;48.020;11.720;2023-02-13T03:52:30;0.20;99.90
7648;DHT22;3866;48.020;11.720;2023-02-13T03:55:00;0.30;99.90
7648;DHT22;3866;48.020;11.720;2023-02-13T03:57:47;0.30;99.90
7648;DHT22;3866;48.020;11.720;2023-02-13T04:00:37;0.30;99.90
7648;DHT22;3866;48.020;11.720;2023-02-13T04:03:09;0.10;99.90
7648;DHT22;3866;48.020;11.720;2023-02-13T04:05:42;0.00;99.90
7648;DHT22;3866;48.020;11.720;2023-02-13T04:08:11;-0.10;99.90
7648;DHT22;3866;48.020;11.720;2023-02-13T04:10:45;0.10;99.90
7648;DHT22;3866;48.020;11.720;2023-02-13T04:13:17;0.00;99.90
7648;DHT22;3866;48.020;11.720;2023-02-13T04:15:50;0.00;99.90
7648;DHT22;3866;48.020;11.720;2023-02-13T04:18:22;0.00;99.90
7648;DHT22;3866;48.020;11.720;2023-02-13T04:20:50;0.00;99.90
7648;DHT22;3866;48.020;11.720;2023-02-13T04:23:19;0.00;99.90
7648;DHT22;3866;48.020;11.720;2023-02-13T04:25:47;0.00;99.90
7648;DHT22;3866;48.020;11.720;2023-02-13T04:28:16;-0.10;99.90
7648;DHT22;3866;48.020;11.720;2023-02-13T04:30:43;-0.10;99.90
7648;DHT22;3866;48.020;11.720;2023-02-13T04:33:10;0.00;99.90
7648;DHT22;3866;48.020;11.720;2023-02-13T04:35:36;0.00;99.90
7648;DHT22;3866;48.020;11.720;2023-02-13T04:38:03;0.00;99.90
7648;DHT22;3866;48.020;11.720;2023-02-13T04:40:32;0.10;99.90
7648;DHT22;3866;48.020;11.720;2023-02-13T04:42:59;0.10;99.90
7648;DHT22;3866;48.020;11.720;2023-02-13T04:45:26;0.20;99.90
7648;DHT22;3866;48.020;11.720;2023-02-13T04:47:54;0.20;99.90
7648;DHT22;3866;48.020;11.720;2023-02-13T04:50:22;0.00;99.90
7648;DHT22;3866;48.020;11.720;2023-02-13T04:52:52;0.00;99.90
7648;DHT22;3866;48.020;11.720;2023-02-13T04:55:20;0.00;99.90
7648;DHT22;3866;48.020;11.720;2023-02-13T04:57:51;0.10;99.90
7648;DHT22;3866;48.020;11.720;2023-02-13T05:00:19;0.00;99.90
7648;DHT22;3866;48.020;11.720;2023-02-13T05:02:46;0.10;99.90
7648;DHT22;3866;48.020;11.720;2023-02-13T05:05:13;0.20;99.90
7648;DHT22;3866;48.020;11.720;2023-02-13T05:07:40;0.20;99.90
7648;DHT22;3866;48.020;11.720;2023-02-13T05:10:08;0.00;99.90
7648;DHT22;3866;48.020;11.720;2023-02-13T05:12:36;0.20;99.90
7648;DHT22;3866;48.020;11.720;2023-02-13T05:15:05;0.10;99.90
7648;DHT22;3866;48.020;11.720;2023-02-13T05:17:32;0.10;99.90
7648;DHT22;3866;48.020;11.720;2023-02-13T05:19:59;0.10;99.90
7648;DHT22;3866;48.020;11.720;2023-02-13T05:22:26;0.20;99.90
7648;DHT22;3866;48.020;11.720;2023-02-13T05:25:10;0.20;99.90
7648;DHT22;3866;48.020;11.720;2023-02-13T05:27:37;0.20;99.90
7648;DHT22;3866;48.020;11.720;2023-02-13T05:30:06;0.20;99.90
7648;DHT22;3866;48.020;11.720;2023-02-13T05:32:33;0.20;99.90
7648;DHT22;3866;48.020;11.720;2023-02-13T05:35:00;0.20;99.90
7648;DHT22;3866;48.020;11.720;2023-02-13T05:37:27;0.10;99.90
7648;DHT22;3866;48.020;11.720;2023-02-13T05:39:54;0.30;99.90
7648;DHT22;3866;48.020;11.720;2023-02-13T05:42:21;0.40;99.90
7648;DHT22;3866;48.020;11.720;2023-02-13T05:44:48;0.40;99.90
7648;DHT22;3866;48.020;11.720;2023-02-13T05:47:16;0.30;99.90
7648;DHT22;3866;48.020;11.720;2023-02-13T05:49:43;0.50;99.90
7648;DHT22;3866;48.020;11.720;2023-02-13T05:52:10;0.40;99.90
7648;DHT22;3866;48.020;11.720;2023-02-13T05:54:37;0.40;99.90
7648;DHT22;3866;48.020;11.720;2023-02-13T05:57:04;0.40;99.90
7648;DHT22;3866;48.020;11.720;2023-02-13T05:59:31;0.30;99.90
7648;DHT22;3866;48.020;11.720;2023-02-13T06:01:58;0.30;99.90
7648;DHT22;3866;48.020;11.720;2023-02-13T06:04:26;0.40;99.90
7648;DHT22;3866;48.020;11.720;2023-02-13T06:06:53;0.40;99.90
7648;DHT22;3866;48.020;11.720;2023-02-13T06:09:20;0.20;99.90
7648;DHT22;3866;48.020;11.720;2023-02-13T06:11:47;0.10;99.90
7648;DHT22;3866;48.020;11.720;2023-02-13T06:14:14;0.20;99.90
7648;DHT22;3866;48.020;11.720;2023-02-13T06:16:41;0.30;99.90
7648;DHT22;3866;48.020;11.720;2023-02-13T06:19:08;0.40;99.90
7648;DHT22;3866;48.020;11.720;2023-02-13T06:21:36;0.40;99.90
7648;DHT22;3866;48.020;11.720;2023-02-13T06:24:04;0.30;99.90
7648;DHT22;3866;48.020;11.720;2023-02-13T06:26:31;0.40;99.90
7648;DHT22;3866;48.020;11.720;2023-02-13T06:28:58;0.30;99.90
7648;DHT22;3866;48.020;11.720;2023-02-13T06:31:25;0.30;99.90
7648;DHT22;3866;48.020;11.720;2023-02-13T06:33:52;0.30;99.90
7648;DHT22;3866;48.020;11.720;2023-02-13T06:36:19;0.70;99.90
7648;DHT22;3866;48.020;11.720;2023-02-13T06:38:47;0.80;99.90
7648;DHT22;3866;48.020;11.720;2023-02-13T06:41:14;0.80;99.90
7648;DHT22;3866;48.020;11.720;2023-02-13T06:43:42;0.90;99.90
7648;DHT22;3866;48.020;11.720;2023-02-13T06:46:09;0.80;99.90
7648;DHT22;3866;48.020;11.720;2023-02-13T06:48:36;0.90;99.90
7648;DHT22;3866;48.020;11.720;2023-02-13T06:51:03;0.80;99.90
7648;DHT22;3866;48.020;11.720;2023-02-13T06:53:30;0.60;99.90
7648;DHT22;3866;48.020;11.720;2023-02-13T06:56:02;0.70;99.90
7648;DHT22;3866;48.020;11.720;2023-02-13T06:58:29;0.70;99.90
7648;DHT22;3866;48.020;11.720;2023-02-13T07:00:56;0.60;99.90
7648;DHT22;3866;48.020;11.720;2023-02-13T07:03:23;0.70;99.90
7648;DHT22;3866;48.020;11.720;2023-02-13T07:05:50;0.90;99.90
7648;DHT22;3866;48.020;11.720;2023-02-13T07:08:17;0.80;99.90
7648;DHT22;3866;48.020;11.720;2023-02-13T07:10:44;0.70;99.90
7648;DHT22;3866;48.020;11.720;2023-02-13T07:13:12;0.40;99.90
7648;DHT22;3866;48.020;11.720;2023-02-13T07:15:39;0.60;99.90
7648;DHT22;3866;48.020;11.720;2023-02-13T07:18:06;0.70;99.90
7648;DHT22;3866;48.020;11.720;2023-02-13T07:20:33;0.60;99.90
7648;DHT22;3866;48.020;11.720;2023-02-13T07:23:02;0.60;99.90
7648;DHT22;3866;48.020;11.720;2023-02-13T07:25:29;0.90;99.90
7648;DHT22;3866;48.020;11.720;2023-02-13T07:28:00;0.70;99.90
7648;DHT22;3866;48.020;11.720;2023-02-13T07:30:29;0.90;99.90
7648;DHT22;3866;48.020;11.720;2023-02-13T07:36:38;0.90;99.90
7648;DHT22;3866;48.020;11.720;2023-02-13T07:39:05;0.80;99.90
7648;DHT22;3866;48.020;11.720;2023-02-13T07:41:32;0.70;99.90
7648;DHT22;3866;48.020;11.720;2023-02-13T07:43:59;1.00;99.90
7648;DHT22;3866;48.020;11.720;2023-02-13T07:46:27;1.20;99.90
7648;DHT22;3866;48.020;11.720;2023-02-13T07:48:54;1.00;99.90
7648;DHT22;3866;48.020;11.720;2023-02-13T07:51:21;1.20;99.90
7648;DHT22;3866;48.020;11.720;2023-02-13T07:53:50;1.00;99.90
7648;DHT22;3866;48.020;11.720;2023-02-13T07:56:17;1.10;99.90
7648;DHT22;3866;48.020;11.720;2023-02-13T07:58:44;1.10;99.90
7648;DHT22;3866;48.020;11.720;2023-02-13T08:01:13;1.10;99.90
7648;DHT22;3866;48.020;11.720;2023-02-13T08:03:42;1.10;99.90
7648;DHT22;3866;48.020;11.720;2023-02-13T08:06:09;1.00;99.90
7648;DHT22;3866;48.020;11.720;2023-02-13T08:08:36;1.00;99.90
7648;DHT22;3866;48.020;11.720;2023-02-13T08:11:05;0.80;99.90
7648;DHT22;3866;48.020;11.720;2023-02-13T08:13:50;1.00;99.90
7648;DHT22;3866;48.020;11.720;2023-02-13T08:16:17;1.00;99.90
7648;DHT22;3866;48.020;11.720;2023-02-13T08:18:45;1.10;99.90
7648;DHT22;3866;48.020;11.720;2023-02-13T08:21:12;1.20;99.90
7648;DHT22;3866;48.020;11.720;2023-02-13T08:23:40;1.00;99.90
7648;DHT22;3866;48.020;11.720;2023-02-13T08:26:07;1.20;99.90
7648;DHT22;3866;48.020;11.720;2023-02-13T08:28:35;1.20;99.90
7648;DHT22;3866;48.020;11.720;2023-02-13T08:31:09;1.10;99.90
7648;DHT22;3866;48.020;11.720;2023-02-13T08:33:35;1.10;99.90
7648;DHT22;3866;48.020;11.720;2023-02-13T08:36:04;1.20;99.90
7648;DHT22;3866;48.020;11.720;2023-02-13T08:38:32;1.20;99.90
7648;DHT22;3866;48.020;11.720;2023-02-13T08:40:59;1.10;99.90
7648;DHT22;3866;48.020;11.720;2023-02-13T08:43:26;1.20;99.90
7648;DHT22;3866;48.020;11.720;2023-02-13T08:45:52;1.30;99.90
7648;DHT22;3866;48.020;11.720;2023-02-13T08:51:43;1.20;99.90
7648;DHT22;3866;48.020;11.720;2023-02-13T08:57:52;1.20;99.90
7648;DHT22;3866;48.020;11.720;2023-02-13T09:00:20;1.00;99.90
7648;DHT22;3866;48.020;11.720;2023-02-13T09:02:47;1.10;99.90
7648;DHT22;3866;48.020;11.720;2023-02-13T09:05:14;1.10;99.90
7648;DHT22;3866;48.020;11.720;2023-02-13T09:07:42;1.20;99.90
7648;DHT22;3866;48.020;11.720;2023-02-13T09:10:10;1.40;99.90
7648;DHT22;3866;48.020;11.720;2023-02-13T09:12:37;1.50;99.90
7648;DHT22;3866;48.020;11.720;2023-02-13T09:15:04;1.40;99.90
7648;DHT22;3866;48.020;11.720;2023-02-13T09:17:31;1.40;99.90
7648;DHT22;3866;48.020;11.720;2023-02-13T09:19:58;1.00;99.90
7648;DHT22;3866;48.020;11.720;2023-02-13T09:22:25;0.90;99.90
7648;DHT22;3866;48.020;11.720;2023-02-13T09:24:53;0.80;99.90
7648;DHT22;3866;48.020;11.720;2023-02-13T09:27:20;0.70;99.90
7648;DHT22;3866;48.020;11.720;2023-02-13T09:29:47;0.70;99.90
7648;DHT22;3866;48.020;11.720;2023-02-13T09:32:14;0.50;99.90
7648;DHT22;3866;48.020;11.720;2023-02-13T09:34:41;0.50;99.90
7648;DHT22;3866;48.020;11.720;2023-02-13T09:37:08;0.90;99.90
7648;DHT22;3866;48.020;11.720;2023-02-13T09:39:35;0.90;99.90
7648;DHT22;3866;48.020;11.720;2023-02-13T09:42:13;0.90;99.90
7648;DHT22;3866;48.020;11.720;2023-02-13T09:44:42;0.50;99.90
7648;DHT22;3866;48.020;11.720;2023-02-13T09:47:14;0.80;99.90
7648;DHT22;3866;48.020;11.720;2023-02-13T09:49:47;0.90;99.90
7648;DHT22;3866;48.020;11.720;2023-02-13T09:52:14;1.00;99.90
7648;DHT22;3866;48.020;11.720;2023-02-13T09:54:42;1.10;99.90
7648;DHT22;3866;48.020;11.720;2023-02-13T09:57:16;1.30;99.90
7648;DHT22;3866;48.020;11.720;2023-02-13T09:59:54;1.30;99.90
7648;DHT22;3866;48.020;11.720;2023-02-13T10:02:47;1.20;99.90
7648;DHT22;3866;48.020;11.720;2023-02-13T10:05:25;1.10;99.90
7648;DHT22;3866;48.020;11.720;2023-02-13T10:08:02;1.40;99.90
7648;DHT22;3866;48.020;11.720;2023-02-13T10:10:39;1.30;99.90
7648;DHT22;3866;48.020;11.720;2023-02-13T10:13:26;1.50;99.90
7648;DHT22;3866;48.020;11.720;2023-02-13T10:16:01;1.70;99.90
7648;DHT22;3866;48.020;11.720;2023-02-13T10:18:37;1.60;99.90
7648;DHT22;3866;48.020;11.720;2023-02-13T10:21:07;1.60;99.90
7648;DHT22;3866;48.020;11.720;2023-02-13T10:23:40;1.50;99.90
7648;DHT22;3866;48.020;11.720;2023-02-13T10:26:13;1.60;99.90
7648;DHT22;3866;48.020;11.720;2023-02-13T10:28:47;1.70;99.90
7648;DHT22;3866;48.020;11.720;2023-02-13T10:31:37;1.70;99.90
7648;DHT22;3866;48.020;11.720;2023-02-13T10:34:10;1.70;99.90
7648;DHT22;3866;48.020;11.720;2023-02-13T10:36:41;1.90;99.90
7648;DHT22;3866;48.020;11.720;2023-02-13T10:39:22;1.90;99.90
7648;DHT22;3866;48.020;11.720;2023-02-13T10:41:51;1.40;99.90
7648;DHT22;3866;48.020;11.720;2023-02-13T10:44:41;1.40;99.90
7648;DHT22;3866;48.020;11.720;2023-02-13T10:47:17;1.30;99.90
7648;DHT22;3866;48.020;11.720;2023-02-13T10:50:00;1.70;99.90
7648;DHT22;3866;48.020;11.720;2023-02-13T10:52:38;1.90;99.90
7648;DHT22;3866;48.020;11.720;2023-02-13T10:55:37;2.00;99.90
7648;DHT22;3866;48.020;11.720;2023-02-13T10:58:10;1.90;99.90
7648;DHT22;3866;48.020;11.720;2023-02-13T11:00:45;2.10;99.90
7648;DHT22;3866;48.020;11.720;2023-02-13T11:03:17;2.20;99.90
7648;DHT22;3866;48.020;11.720;2023-02-13T11:05:44;2.20;99.90
7648;DHT22;3866;48.020;11.720;2023-02-13T11:08:17;2.00;99.90
7648;DHT22;3866;48.020;11.720;2023-02-13T11:10:44;2.20;99.90
7648;DHT22;3866;48.020;11.720;2023-02-13T11:13:17;2.20;99.90
7648;DHT22;3866;48.020;11.720;2023-02-13T11:15:58;2.30;99.90
7648;DHT22;3866;48.020;11.720;2023-02-13T11:18:28;2.20;99.90
7648;DHT22;3866;48.020;11.720;2023-02-13T11:20:59;2.30;99.90
7648;DHT22;3866;48.020;11.720;2023-02-13T11:23:36;2.30;99.90
7648;DHT22;3866;48.020;11.720;2023-02-13T11:26:06;2.10;99.90
7648;DHT22;3866;48.020;11.720;2023-02-13T11:28:37;1.80;99.90
7648;DHT22;3866;48.020;11.720;2023-02-13T11:31:18;2.00;99.90
7648;DHT22;3866;48.020;11.720;2023-02-13T11:33:47;2.30;99.90
7648;DHT22;3866;48.020;11.720;2023-02-13T11:36:16;2.50;99.90
7648;DHT22;3866;48.020;11.720;2023-02-13T11:38:57;2.00;99.90
7648;DHT22;3866;48.020;11.720;2023-02-13T11:41:24;1.80;99.90
7648;DHT22;3866;48.020;11.720;2023-02-13T11:43:54;1.70;99.90
7648;DHT22;3866;48.020;11.720;2023-02-13T11:46:28;2.10;99.90
7648;DHT22;3866;48.020;11.720;2023-02-13T11:48:58;2.20;99.90
7648;DHT22;3866;48.020;11.720;2023-02-13T11:51:40;2.40;99.90
7648;DHT22;3866;48.020;11.720;2023-02-13T11:54:21;2.60;99.90
7648;DHT22;3866;48.020;11.720;2023-02-13T11:56:51;2.50;99.90
7648;DHT22;3866;48.020;11.720;2023-02-13T11:59:21;2.70;99.90
7648;DHT22;3866;48.020;11.720;2023-02-13T12:02:01;2.90;99.90
7648;DHT22;3866;48.020;11.720;2023-02-13T12:04:28;2.90;99.90
7648;DHT22;3866;48.020;11.720;2023-02-13T12:07:00;2.80;99.90
7648;DHT22;3866;48.020;11.720;2023-02-13T12:09:29;2.80;99.90
7648;DHT22;3866;48.020;11.720;2023-02-13T12:11:59;2.90;99.90
7648;DHT22;3866;48.020;11.720;2023-02-13T12:14:30;2.90;99.90
7648;DHT22;3866;48.020;11.720;2023-02-13T12:17:02;3.20;99.90
7648;DHT22;3866;48.020;11.720;2023-02-13T12:19:35;3.40;99.90
7648;DHT22;3866;48.020;11.720;2023-02-13T12:22:13;3.60;99.90
7648;DHT22;3866;48.020;11.720;2023-02-13T12:27:43;3.50;99.90
7648;DHT22;3866;48.020;11.720;2023-02-13T12:30:34;3.70;99.90
7648;DHT22;3866;48.020;11.720;2023-02-13T12:33:17;3.70;99.90
7648;DHT22;3866;48.020;11.720;2023-02-13T12:35:57;3.50;99.90
7648;DHT22;3866;48.020;11.720;2023-02-13T12:38:38;3.60;99.90
7648;DHT22;3866;48.020;11.720;2023-02-13T12:41:19;4.00;99.90
7648;DHT22;3866;48.020;11.720;2023-02-13T12:46:53;3.80;99.90
7648;DHT22;3866;48.020;11.720;2023-02-13T12:49:42;4.00;99.90
7648;DHT22;3866;48.020;11.720;2023-02-13T12:52:31;4.00;99.90
7648;DHT22;3866;48.020;11.720;2023-02-13T12:55:13;4.50;99.90
7648;DHT22;3866;48.020;11.720;2023-02-13T12:57:53;4.60;99.90
7648;DHT22;3866;48.020;11.720;2023-02-13T13:00:33;4.90;99.90
7648;DHT22;3866;48.020;11.720;2023-02-13T13:03:32;4.50;99.90
7648;DHT22;3866;48.020;11.720;2023-02-13T13:06:16;5.00;99.90
7648;DHT22;3866;48.020;11.720;2023-02-13T13:12:10;5.90;99.90
7648;DHT22;3866;48.020;11.720;2023-02-13T13:14:45;6.20;99.90
7648;DHT22;3866;48.020;11.720;2023-02-13T13:17:23;6.10;99.90
7648;DHT22;3866;48.020;11.720;2023-02-13T13:20:02;6.10;99.90
7648;DHT22;3866;48.020;11.720;2023-02-13T13:22:44;5.90;99.90
7648;DHT22;3866;48.020;11.720;2023-02-13T13:25:21;6.40;99.90
7648;DHT22;3866;48.020;11.720;2023-02-13T13:27:54;6.50;99.90
7648;DHT22;3866;48.020;11.720;2023-02-13T13:30:26;6.30;99.90
7648;DHT22;3866;48.020;11.720;2023-02-13T13:33:00;6.80;99.90
7648;DHT22;3866;48.020;11.720;2023-02-13T13:35:28;6.90;99.90
7648;DHT22;3866;48.020;11.720;2023-02-13T13:38:02;6.30;99.90
7648;DHT22;3866;48.020;11.720;2023-02-13T13:40:39;6.20;99.90
7648;DHT22;3866;48.020;11.720;2023-02-13T13:43:16;5.80;99.90
7648;DHT22;3866;48.020;11.720;2023-02-13T13:45:47;5.90;99.90
7648;DHT22;3866;48.020;11.720;2023-02-13T13:48:40;5.40;99.90
7648;DHT22;3866;48.020;11.720;2023-02-13T13:51:13;5.00;99.90
7648;DHT22;3866;48.020;11.720;2023-02-13T13:57:05;5.20;99.90
7648;DHT22;3866;48.020;11.720;2023-02-13T13:59:58;5.60;99.90
7648;DHT22;3866;48.020;11.720;2023-02-13T14:05:24;6.80;99.90
7648;DHT22;3866;48.020;11.720;2023-02-13T14:07:54;6.70;99.90
7648;DHT22;3866;48.020;11.720;2023-02-13T14:13:36;7.00;99.90
7648;DHT22;3866;48.020;11.720;2023-02-13T14:16:07;6.80;99.90
7648;DHT22;3866;48.020;11.720;2023-02-13T14:18:36;6.80;99.90
7648;DHT22;3866;48.020;11.720;2023-02-13T14:21:05;6.70;99.90
7648;DHT22;3866;48.020;11.720;2023-02-13T14:23:42;6.40;99.90
7648;DHT22;3866;48.020;11.720;2023-02-13T14:26:35;6.20;99.90
7648;DHT22;3866;48.020;11.720;2023-02-13T14:29:34;6.50;99.90
7648;DHT22;3866;48.020;11.720;2023-02-13T14:32:20;6.70;99.90
7648;DHT22;3866;48.020;11.720;2023-02-13T14:34:53;7.10;99.90
7648;DHT22;3866;48.020;11.720;2023-02-13T14:37:24;6.50;99.90
7648;DHT22;3866;48.020;11.720;2023-02-13T14:46:14;6.30;99.90
7648;DHT22;3866;48.020;11.720;2023-02-13T14:48:48;6.20;99.90
7648;DHT22;3866;48.020;11.720;2023-02-13T14:51:31;6.00;99.90
7648;DHT22;3866;48.020;11.720;2023-02-13T14:54:04;5.70;99.90
7648;DHT22;3866;48.020;11.720;2023-02-13T14:56:32;5.60;99.90
7648;DHT22;3866;48.020;11.720;2023-02-13T14:59:07;5.80;99.90
7648;DHT22;3866;48.020;11.720;2023-02-13T15:01:43;5.70;99.90
7648;DHT22;3866;48.020;11.720;2023-02-13T15:04:15;5.60;99.90
7648;DHT22;3866;48.020;11.720;2023-02-13T15:06:43;5.40;99.90
7648;DHT22;3866;48.020;11.720;2023-02-13T15:09:25;5.10;99.90
7648;DHT22;3866;48.020;11.720;2023-02-13T15:11:53;4.60;99.90
7648;DHT22;3866;48.020;11.720;2023-02-13T15:14:23;4.20;99.90
7648;DHT22;3866;48.020;11.720;2023-02-13T15:16:54;3.90;99.90
7648;DHT22;3866;48.020;11.720;2023-02-13T15:19:24;3.90;99.90
7648;DHT22;3866;48.020;11.720;2023-02-13T15:21:55;3.60;99.90
7648;DHT22;3866;48.020;11.720;2023-02-13T15:24:23;3.50;99.90
7648;DHT22;3866;48.020;11.720;2023-02-13T15:26:56;3.10;99.90
7648;DHT22;3866;48.020;11.720;2023-02-13T15:29:24;3.10;99.90
7648;DHT22;3866;48.020;11.720;2023-02-13T15:31:53;2.90;99.90
7648;DHT22;3866;48.020;11.720;2023-02-13T15:34:23;2.70;99.90
7648;DHT22;3866;48.020;11.720;2023-02-13T15:36:51;2.60;99.90
7648;DHT22;3866;48.020;11.720;2023-02-13T15:39:19;2.60;99.90
7648;DHT22;3866;48.020;11.720;2023-02-13T15:41:50;2.60;99.90
7648;DHT22;3866;48.020;11.720;2023-02-13T15:44:19;2.80;99.90
7648;DHT22;3866;48.020;11.720;2023-02-13T15:46:48;2.70;99.90
7648;DHT22;3866;48.020;11.720;2023-02-13T15:49:19;2.70;99.90
7648;DHT22;3866;48.020;11.720;2023-02-13T15:51:47;2.60;99.90
7648;DHT22;3866;48.020;11.720;2023-02-13T15:54:23;2.60;99.90
7648;DHT22;3866;48.020;11.720;2023-02-13T15:56:52;2.50;99.90
7648;DHT22;3866;48.020;11.720;2023-02-13T15:59:20;2.50;99.90
7648;DHT22;3866;48.020;11.720;2023-02-13T16:01:48;2.50;99.90
7648;DHT22;3866;48.020;11.720;2023-02-13T16:04:17;2.40;99.90
7648;DHT22;3866;48.020;11.720;2023-02-13T16:06:46;2.40;99.90
7648;DHT22;3866;48.020;11.720;2023-02-13T16:09:31;2.30;99.90
7648;DHT22;3866;48.020;11.720;2023-02-13T16:12:03;2.30;99.90
7648;DHT22;3866;48.020;11.720;2023-02-13T16:14:33;2.40;99.90
7648;DHT22;3866;48.020;11.720;2023-02-13T16:17:03;2.30;99.90
7648;DHT22;3866;48.020;11.720;2023-02-13T16:19:38;2.30;99.90
7648;DHT22;3866;48.020;11.720;2023-02-13T16:22:21;2.10;99.90
7648;DHT22;3866;48.020;11.720;2023-02-13T16:24:52;2.20;99.90
7648;DHT22;3866;48.020;11.720;2023-02-13T16:27:24;2.10;99.90
7648;DHT22;3866;48.020;11.720;2023-02-13T16:29:55;2.10;99.90
7648;DHT22;3866;48.020;11.720;2023-02-13T16:32:27;2.00;99.90
7648;DHT22;3866;48.020;11.720;2023-02-13T16:35:14;1.90;99.90
7648;DHT22;3866;48.020;11.720;2023-02-13T16:37:49;1.80;99.90
7648;DHT22;3866;48.020;11.720;2023-02-13T16:40:37;1.60;99.90
7648;DHT22;3866;48.020;11.720;2023-02-13T16:46:24;1.70;99.90
7648;DHT22;3866;48.020;11.720;2023-02-13T16:49:02;1.70;99.90
7648;DHT22;3866;48.020;11.720;2023-02-13T16:51:34;1.60;99.90
7648;DHT22;3866;48.020;11.720;2023-02-13T16:54:04;1.50;99.90
7648;DHT22;3866;48.020;11.720;2023-02-13T16:56:38;1.60;99.90
7648;DHT22;3866;48.020;11.720;2023-02-13T16:59:20;1.60;99.90
7648;DHT22;3866;48.020;11.720;2023-02-13T17:02:00;1.40;99.90
7648;DHT22;3866;48.020;11.720;2023-02-13T17:04:28;1.30;99.90
7648;DHT22;3866;48.020;11.720;2023-02-13T17:06:56;1.30;99.90
7648;DHT22;3866;48.020;11.720;2023-02-13T17:09:23;1.20;99.90
7648;DHT22;3866;48.020;11.720;2023-02-13T17:11:51;1.10;99.90
7648;DHT22;3866;48.020;11.720;2023-02-13T17:14:19;1.20;99.90
7648;DHT22;3866;48.020;11.720;2023-02-13T17:16:46;1.20;99.90
7648;DHT22;3866;48.020;11.720;2023-02-13T17:19:14;1.20;99.90